Terminal Aerodrome Forecast
Issued by NWS Charleston, WV

Home | Current Version | Previous Version | Text Only | Print | Product List | Glossary On
Versions: 1 2 3 4 5 6 7 8 9 10 11 12 13 14 15 16 17 18 19 20 21 22 23 24 25 26 27 28 29
000
FTUS41 KRLX 030100 AAB
TAFEKN
TAF AMD
KEKN 030158Z 0302/0324 00000KT P6SM BKN025
     FM030800 00000KT P6SM BKN020
     FM031200 00000KT P6SM BKN018
     FM031500 29003KT P6SM BKN025
     FM031700 29004KT P6SM SCT035
     FM032100 30005KT P6SM SKC=

USA.gov is the U.S. government's official web portal to all federal, state and local government web resources and services.